Time;durP1;ratioP1;P1;durP2;ratioP2;P2;SDS_P1;SDS_P2;PMS_P1;PMS_P2;Temp;Humidity;BMP_temperature;BMP_pressure;BME280_temperature;BME280_humidity;BME280_pressure;Samples;Min_cycle;Max_cycle;Signal;HPM_P1;HPM_P2
2023/02/09 00:00:59;;;;;;;48.90;24.20;;;;;;;-1.52;82.26;102463.54;181368;1260;43072;-67
2023/02/09 00:05:03;;;;;;;31.90;20.30;;;;;;;-1.51;82.09;102450.14;181347;1261;45420;-67
2023/02/09 00:09:08;;;;;;;40.60;22.50;;;;;;;-1.44;81.62;102441.28;181220;1262;43215;-68
2023/02/09 00:13:23;;;;;;;38.70;23.10;;;;;;;-1.35;80.81;102435.05;181403;1262;43022;-67
2023/02/09 00:17:26;;;;;;;32.20;20.50;;;;;;;-1.29;80.31;102440.63;181361;1262;57578;-67
2023/02/09 00:26:50;;;;;;;46.50;24.50;;;;;;;-1.16;79.44;102440.14;181419;1261;43073;-67
2023/02/09 00:30:53;;;;;;;39.40;24.00;;;;;;;-1.17;79.22;102428.11;181298;1262;43938;-68
2023/02/09 00:34:56;;;;;;;40.50;22.60;;;;;;;-1.15;78.96;102423.95;181280;1262;43673;-68
2023/02/09 00:38:59;;;;;;;38.30;23.40;;;;;;;-1.18;79.07;102423.94;181346;1262;58170;-67
2023/02/09 00:43:16;;;;;;;44.30;24.50;;;;;;;-1.18;78.85;102423.77;181391;1261;44366;-67
2023/02/09 00:47:19;;;;;;;44.30;24.40;;;;;;;-1.14;78.79;102425.34;181344;1262;43091;-67
2023/02/09 00:51:55;;;;;;;46.30;27.30;;;;;;;-1.17;78.52;102421.84;181359;1262;43134;-67
2023/02/09 00:55:58;;;;;;;51.90;25.20;;;;;;;-1.18;78.57;102420.27;181417;1262;42984;-67
2023/02/09 01:00:05;;;;;;;42.60;23.50;;;;;;;-1.26;78.33;102412.08;181302;1261;58229;-67
2023/02/09 01:04:08;;;;;;;24.00;16.80;;;;;;;-1.23;78.34;102411.73;181291;1261;44275;-67
2023/02/09 01:08:12;;;;;;;28.30;18.70;;;;;;;-1.17;77.88;102411.92;181374;1261;43801;-67
2023/02/09 01:12:22;;;;;;;33.90;18.30;;;;;;;-1.05;77.32;102410.38;181345;1261;43655;-67
2023/02/09 01:16:30;;;;;;;34.50;19.10;;;;;;;-0.92;76.65;102409.51;181255;1261;43040;-67
2023/02/09 01:20:34;;;;;;;29.00;17.40;;;;;;;-0.85;76.52;102404.63;181324;1260;58369;-67
2023/02/09 01:24:38;;;;;;;27.60;17.70;;;;;;;-0.85;76.32;102398.88;181423;1260;43636;-67
2023/02/09 01:28:42;;;;;;;27.20;15.40;;;;;;;-0.88;76.37;102390.70;181277;1262;43068;-67
2023/02/09 01:32:45;;;;;;;31.80;16.00;;;;;;;-0.90;76.30;102391.22;181412;1261;43614;-68
2023/02/09 01:36:51;;;;;;;30.40;14.90;;;;;;;-0.88;76.03;102390.70;181269;1262;43613;-67
2023/02/09 01:45:49;;;;;;;22.20;13.90;;;;;;;-0.86;76.23;102387.91;167356;1260;83532;-91
2023/02/09 01:49:53;;;;;;;27.00;12.80;;;;;;;-0.89;76.57;102380.05;180908;1265;43999;-91
2023/02/09 01:53:58;;;;;;;27.90;16.10;;;;;;;-1.15;77.25;102371.52;180621;1265;44150;-91
2023/02/09 01:58:21;;;;;;;21.20;13.40;;;;;;;-1.46;78.98;102369.91;180590;1264;43850;-91
2023/02/09 02:02:26;;;;;;;29.30;14.30;;;;;;;-1.65;80.37;102362.05;180753;1263;58380;-91
2023/02/09 02:06:31;;;;;;;22.20;11.50;;;;;;;-1.77;80.91;102358.70;180770;1265;43842;-88
2023/02/09 02:10:34;;;;;;;20.90;13.40;;;;;;;-1.75;80.65;102354.71;180824;1263;43922;-89
2023/02/09 02:14:39;;;;;;;29.40;15.40;;;;;;;-1.73;80.77;102347.08;180638;1265;52857;-89
2023/02/09 02:19:07;;;;;;;23.10;14.40;;;;;;;-1.82;81.68;102348.96;180792;1264;44091;-89
2023/02/09 02:23:31;;;;;;;23.30;12.90;;;;;;;-1.89;81.99;102341.44;180826;1263;58741;-88
2023/02/09 02:27:50;;;;;;;26.90;14.70;;;;;;;-1.78;81.37;102336.27;180945;1263;44773;-89
2023/02/09 02:32:12;;;;;;;19.00;14.90;;;;;;;-1.78;80.64;102328.60;180807;1264;44157;-89
2023/02/09 02:36:37;;;;;;;24.00;15.10;;;;;;;-1.76;80.33;102326.35;180927;1263;43864;-89
2023/02/09 02:40:54;;;;;;;22.70;14.40;;;;;;;-1.84;80.57;102325.98;180821;1269;44181;-89
2023/02/09 02:50:02;;;;;;;33.60;17.90;;;;;;;-1.87;81.84;102316.95;161174;1260;76408;-74
2023/02/09 02:54:13;;;;;;;30.10;15.60;;;;;;;-1.98;82.25;102312.02;180999;1266;43653;-75
2023/02/09 02:58:24;;;;;;;33.50;14.60;;;;;;;-2.03;82.92;102310.98;180899;1263;81738;-89
2023/02/09 03:07:06;;;;;;;26.70;16.90;;;;;;;-2.28;84.46;102307.39;165061;1260;58162;-89
2023/02/09 03:11:11;;;;;;;23.10;14.00;;;;;;;-2.21;83.75;102302.04;180934;1263;43784;-90
2023/02/09 03:15:41;;;;;;;17.40;11.80;;;;;;;-2.05;82.52;102296.19;181091;1263;44040;-88
2023/02/09 03:19:57;;;;;;;21.20;12.60;;;;;;;-1.82;81.15;102291.37;180825;1264;44046;-89
2023/02/09 03:24:10;;;;;;;27.40;12.20;;;;;;;-1.62;79.98;102293.67;180857;1267;43763;-89
2023/02/09 03:28:19;;;;;;;18.90;10.40;;;;;;;-1.44;79.14;102293.52;180871;1263;59441;-89
2023/02/09 03:32:24;;;;;;;16.70;11.20;;;;;;;-1.33;78.68;102288.13;180859;1264;43935;-89
2023/02/09 03:36:36;;;;;;;19.30;10.40;;;;;;;-1.32;78.65;102292.30;180959;1265;43774;-90
2023/02/09 03:40:40;;;;;;;19.50;14.00;;;;;;;-1.41;78.83;102284.28;180878;1263;44015;-90
2023/02/09 03:44:45;;;;;;;15.60;11.00;;;;;;;-1.39;78.03;102285.16;180854;1263;44162;-89
2023/02/09 03:48:49;;;;;;;14.50;12.00;;;;;;;-1.29;77.46;102281.85;180831;1263;57554;-90
2023/02/09 03:52:54;;;;;;;13.10;9.50;;;;;;;-1.25;77.10;102270.54;180945;1263;44012;-89
2023/02/09 03:56:59;;;;;;;16.00;10.90;;;;;;;-1.23;77.18;102263.23;180835;1264;49294;-90
2023/02/09 04:16:13;;;;;;;16.00;9.60;;;;;;;-0.68;74.02;102228.63;154116;1258;75548;-74
2023/02/09 04:25:24;;;;;;;12.00;8.00;;;;;;;-0.39;72.26;102228.51;180381;1264;76195;-73
2023/02/09 04:29:28;;;;;;;15.00;9.10;;;;;;;-0.34;71.49;102230.21;180948;1269;43717;-75
2023/02/09 04:33:32;;;;;;;15.60;11.00;;;;;;;-0.25;70.60;102226.33;180710;1269;60084;-75
2023/02/09 04:37:36;;;;;;;11.30;8.20;;;;;;;-0.20;70.29;102226.66;180894;1271;43009;-75
2023/02/09 04:41:40;;;;;;;17.20;9.90;;;;;;;-0.13;70.02;102221.92;180842;1269;43636;-75
2023/02/09 04:46:16;;;;;;;16.60;11.30;;;;;;;-0.13;69.75;102216.50;180848;1268;43142;-74
2023/02/09 04:50:20;;;;;;;19.00;11.30;;;;;;;-0.14;69.46;102217.55;180940;1271;43615;-75
2023/02/09 04:54:24;;;;;;;11.50;8.50;;;;;;;-0.16;69.64;102214.61;180901;1269;58338;-76
2023/02/09 05:02:54;;;;;;;15.50;8.40;;;;;;;-0.13;68.90;102205.17;180905;1270;43030;-75
2023/02/09 05:07:05;;;;;;;17.50;11.40;;;;;;;-0.10;69.05;102200.44;180734;1270;43070;-76
2023/02/09 05:11:10;;;;;;;17.20;12.00;;;;;;;-0.08;69.05;102202.88;180756;1270;43067;-75
2023/02/09 05:15:23;;;;;;;16.50;10.00;;;;;;;-0.13;69.21;102198.55;180748;1269;58795;-75
2023/02/09 05:19:27;;;;;;;13.60;9.00;;;;;;;-0.15;69.01;102199.60;180771;1270;43411;-76
2023/02/09 05:23:49;;;;;;;18.40;10.90;;;;;;;-0.18;69.32;102192.64;180880;1271;43409;-75
2023/02/09 05:27:54;;;;;;;14.30;8.10;;;;;;;-0.21;69.38;102187.95;180833;1270;43683;-75
2023/02/09 05:32:28;;;;;;;14.40;8.90;;;;;;;-0.20;69.28;102182.89;180774;1270;43006;-76
2023/02/09 05:36:32;;;;;;;14.60;9.90;;;;;;;-0.11;68.41;102185.63;180855;1270;58139;-76
2023/02/09 05:46:23;;;;;;;25.30;17.10;;;;;;;-0.08;68.29;102190.50;180914;1269;43777;-76
2023/02/09 05:50:27;;;;;;;16.20;12.00;;;;;;;-0.08;68.24;102187.00;180420;1270;82047;-90
2023/02/09 05:54:31;;;;;;;19.60;10.90;;;;;;;-0.12;68.54;102191.91;180138;1270;43949;-90
2023/02/09 05:58:36;;;;;;;15.80;10.10;;;;;;;-0.15;68.27;102183.90;179689;1270;59190;-91
2023/02/09 06:02:40;;;;;;;19.50;11.20;;;;;;;-0.15;68.42;102175.52;180087;1270;44251;-90
2023/02/09 06:06:45;;;;;;;23.40;11.40;;;;;;;-0.13;68.27;102174.13;180120;1269;43774;-89
2023/02/09 06:11:01;;;;;;;20.60;10.70;;;;;;;-0.17;68.24;102173.80;180272;1269;44115;-90
2023/02/09 06:15:05;;;;;;;17.70;11.50;;;;;;;-0.15;67.95;102165.24;180476;1270;46982;-91
2023/02/09 06:19:14;;;;;;;14.50;10.50;;;;;;;-0.14;67.82;102162.10;180104;1269;58901;-90
2023/02/09 06:23:17;;;;;;;25.70;13.50;;;;;;;-0.13;67.70;102158.77;180037;1270;44182;-90
2023/02/09 06:27:21;;;;;;;22.60;13.30;;;;;;;-0.07;67.46;102160.83;180297;1271;44064;-90
2023/02/09 06:31:25;;;;;;;20.40;11.80;;;;;;;-0.09;67.14;102152.98;180181;1270;44208;-90
2023/02/09 06:35:30;;;;;;;24.20;11.00;;;;;;;-0.07;67.01;102154.54;180284;1270;43876;-90
2023/02/09 06:39:34;;;;;;;17.40;12.60;;;;;;;0.02;66.76;102148.73;180135;1270;57291;-90
2023/02/09 06:43:37;;;;;;;19.80;10.20;;;;;;;0.03;66.41;102145.77;180263;1271;43746;-90
2023/02/09 06:47:42;;;;;;;23.60;15.00;;;;;;;0.02;66.20;102142.27;180004;1270;44198;-90
2023/02/09 06:51:46;;;;;;;18.10;9.70;;;;;;;0.08;65.96;102145.89;180367;1270;44166;-90
2023/02/09 06:55:52;;;;;;;26.80;10.70;;;;;;;0.11;65.47;102141.16;180181;1269;43753;-90
2023/02/09 06:59:56;;;;;;;19.50;9.70;;;;;;;0.22;64.77;102143.86;180056;1269;60044;-90
2023/02/09 07:03:59;;;;;;;20.60;11.00;;;;;;;0.30;64.34;102142.21;180420;1270;43809;-90
2023/02/09 07:08:03;;;;;;;16.60;11.10;;;;;;;0.39;64.03;102142.83;180221;1269;43765;-89
2023/02/09 07:12:07;;;;;;;20.20;11.50;;;;;;;0.50;63.48;102136.45;179841;1269;44147;-89
2023/02/09 07:16:11;;;;;;;17.70;10.10;;;;;;;0.52;63.07;102132.05;180030;1269;44165;-90
2023/02/09 07:20:14;;;;;;;14.70;7.40;;;;;;;0.58;62.50;102125.20;179883;1273;60663;-90
2023/02/09 07:24:18;;;;;;;17.30;11.60;;;;;;;0.70;62.54;102117.71;179825;1270;43880;-88
2023/02/09 07:28:23;;;;;;;20.80;11.90;;;;;;;0.79;61.74;102109.59;179819;1270;44110;-90
2023/02/09 07:32:27;;;;;;;17.50;11.60;;;;;;;0.86;62.00;102107.23;179993;1269;44145;-90
2023/02/09 07:36:31;;;;;;;15.10;10.80;;;;;;;0.96;61.29;102102.58;180037;1270;44544;-90
2023/02/09 07:40:37;;;;;;;15.10;10.10;;;;;;;1.08;61.12;102102.78;180098;1270;59622;-89
2023/02/09 07:44:40;;;;;;;18.20;10.10;;;;;;;1.23;60.61;102112.20;180033;1269;44158;-89
2023/02/09 07:48:44;;;;;;;20.60;11.80;;;;;;;1.33;59.65;102118.70;179938;1269;44068;-90
2023/02/09 07:52:48;;;;;;;13.50;7.30;;;;;;;1.48;59.08;102112.38;179954;1270;44138;-90
2023/02/09 07:56:54;;;;;;;21.90;14.00;;;;;;;1.62;58.95;102108.32;179903;1269;44046;-89
2023/02/09 08:01:04;;;;;;;36.40;17.40;;;;;;;1.74;58.21;102110.23;179946;1271;59677;-90
2023/02/09 08:05:15;;;;;;;21.40;11.80;;;;;;;1.90;58.28;102107.73;179849;1270;44193;-90
2023/02/09 08:09:18;;;;;;;22.70;11.00;;;;;;;2.01;57.85;102097.39;179902;1270;44162;-88
2023/02/09 08:13:23;;;;;;;16.50;10.70;;;;;;;2.11;57.78;102081.47;179779;1270;43771;-90
2023/02/09 08:17:28;;;;;;;17.40;9.70;;;;;;;2.22;57.38;102083.91;180236;1270;43935;-90
2023/02/09 08:21:37;;;;;;;17.30;10.60;;;;;;;2.28;57.02;102082.21;180189;1270;59712;-90
2023/02/09 08:25:40;;;;;;;14.70;10.30;;;;;;;2.40;57.10;102082.70;179983;1271;44009;-90
2023/02/09 08:29:44;;;;;;;18.50;10.80;;;;;;;2.52;56.30;102081.08;179950;1269;43753;-89
2023/02/09 08:33:50;;;;;;;18.80;12.40;;;;;;;2.61;55.78;102077.23;180330;1269;43852;-90
2023/02/09 08:37:53;;;;;;;24.70;11.40;;;;;;;2.71;55.38;102083.70;180199;1270;43919;-90
2023/02/09 08:41:57;;;;;;;20.30;10.80;;;;;;;2.86;54.76;102080.23;179968;1270;58567;-90
2023/02/09 08:46:06;;;;;;;33.10;15.90;;;;;;;3.03;54.54;102084.08;179922;1269;44127;-89
2023/02/09 08:50:09;;;;;;;19.10;10.60;;;;;;;3.14;53.58;102083.31;179922;1270;43909;-90
2023/02/09 08:54:12;;;;;;;37.70;17.30;;;;;;;3.21;53.17;102086.51;179761;1270;44144;-89
2023/02/09 08:58:16;;;;;;;21.80;13.10;;;;;;;3.34;52.44;102088.67;180005;1270;43784;-90
2023/02/09 09:02:19;;;;;;;25.90;13.20;;;;;;;3.32;51.80;102086.09;179874;1269;59773;-89
2023/02/09 09:06:22;;;;;;;21.90;11.60;;;;;;;3.49;52.02;102085.70;179870;1270;44064;-89
2023/02/09 09:10:25;;;;;;;26.60;12.20;;;;;;;3.54;51.73;102076.46;179976;1270;43833;-90
2023/02/09 09:14:30;;;;;;;23.10;10.60;;;;;;;3.67;51.00;102076.17;179793;1271;44002;-89
2023/02/09 09:18:33;;;;;;;19.50;9.70;;;;;;;3.75;50.61;102074.56;179962;1270;48416;-90
2023/02/09 09:22:37;;;;;;;19.20;9.80;;;;;;;3.76;49.81;102070.33;180180;1270;59132;-90
2023/02/09 09:26:40;;;;;;;25.50;10.10;;;;;;;3.85;49.72;102073.25;180191;1270;43811;-90
2023/02/09 09:30:45;;;;;;;22.20;9.50;;;;;;;3.92;49.81;102070.98;180033;1269;44005;-89
2023/02/09 09:34:51;;;;;;;22.00;8.50;;;;;;;4.01;49.53;102070.41;179986;1270;44149;-89
2023/02/09 09:38:55;;;;;;;19.10;10.30;;;;;;;4.14;50.03;102075.70;179750;1269;44238;-90
2023/02/09 09:43:04;;;;;;;21.00;11.00;;;;;;;4.32;49.81;102082.60;179822;1269;58346;-90
2023/02/09 09:47:18;;;;;;;18.90;9.50;;;;;;;4.49;49.11;102081.27;180017;1271;43865;-89
2023/02/09 09:51:39;;;;;;;16.60;9.00;;;;;;;4.65;49.39;102079.43;179782;1270;44137;-89
2023/02/09 09:55:44;;;;;;;11.10;8.30;;;;;;;4.71;48.00;102071.70;179845;1270;44182;-89
2023/02/09 09:59:47;;;;;;;11.60;8.10;;;;;;;4.70;47.19;102073.13;179832;1273;43910;-90
2023/02/09 10:03:51;;;;;;;16.40;10.10;;;;;;;4.81;47.54;102078.83;179991;1269;58039;-89
2023/02/09 10:07:54;;;;;;;18.00;8.50;;;;;;;4.84;47.03;102077.84;179952;1270;44128;-89
2023/02/09 10:12:03;;;;;;;13.40;9.80;;;;;;;4.92;47.05;102074.27;180257;1269;43813;-89
2023/02/09 10:16:26;;;;;;;15.00;9.10;;;;;;;5.06;47.61;102070.36;180259;1269;44148;-89
2023/02/09 10:20:50;;;;;;;16.10;8.70;;;;;;;5.07;46.35;102070.83;179844;1269;43859;-89
2023/02/09 10:24:53;;;;;;;20.10;10.50;;;;;;;5.15;45.98;102061.27;179787;1270;59429;-90
2023/02/09 10:29:20;;;;;;;14.80;9.20;;;;;;;5.24;46.38;102054.49;179914;1270;43918;-89
2023/02/09 10:33:24;;;;;;;13.70;8.70;;;;;;;5.28;46.42;102047.34;179917;1270;270499;-89
2023/02/09 10:37:36;;;;;;;16.20;9.10;;;;;;;5.31;46.10;102047.08;179886;1270;44214;-89
2023/02/09 10:41:42;;;;;;;18.70;10.70;;;;;;;5.34;46.05;102037.65;179850;1271;44080;-89
2023/02/09 10:45:51;;;;;;;17.10;8.30;;;;;;;5.31;45.65;102027.01;179785;1270;60788;-90
2023/02/09 10:50:01;;;;;;;15.60;8.50;;;;;;;5.32;46.06;102027.18;179911;1269;43695;-90
2023/02/09 10:54:18;;;;;;;15.50;8.70;;;;;;;5.35;47.26;102021.26;179675;1270;44140;-90
2023/02/09 10:58:33;;;;;;;13.30;9.30;;;;;;;5.31;46.60;102009.57;179914;1270;44075;-90
2023/02/09 11:02:40;;;;;;;16.00;10.10;;;;;;;5.21;46.75;102007.98;179869;1270;44118;-89
2023/02/09 11:06:55;;;;;;;;;;;;;;;5.11;47.34;102003.54;179601;1270;59521;-89
2023/02/09 11:11:22;;;;;;;15.50;9.50;;;;;;;5.08;47.82;102003.98;180039;1270;44356;-89
2023/02/09 11:15:31;;;;;;;17.60;11.30;;;;;;;5.13;47.93;102003.49;179782;1269;43879;-89
2023/02/09 11:20:11;;;;;;;11.80;9.10;;;;;;;5.08;47.62;101996.78;180184;1270;43816;-89
2023/02/09 11:25:04;;;;;;;17.80;9.00;;;;;;;5.13;48.00;101991.15;179996;1271;43803;-90
2023/02/09 11:29:36;;;;;;;16.80;11.50;;;;;;;5.27;49.07;101986.14;178746;1279;59745;-89
2023/02/09 11:34:09;;;;;;;16.80;11.20;;;;;;;5.34;48.28;101981.52;178515;1276;43830;-90
2023/02/09 11:38:30;;;;;;;16.20;11.50;;;;;;;5.39;47.78;101971.88;178933;1279;43852;-90
2023/02/09 11:42:45;;;;;;;13.30;9.00;;;;;;;5.38;48.46;101977.16;178554;1276;44169;-90
2023/02/09 11:46:53;;;;;;;14.70;10.00;;;;;;;5.39;48.37;101969.04;178646;1276;44365;-89
2023/02/09 11:51:02;;;;;;;16.40;10.90;;;;;;;5.37;48.06;101958.38;178695;1276;57588;-90
2023/02/09 11:55:24;;;;;;;16.80;10.90;;;;;;;5.37;48.63;101952.60;178780;1277;44141;-90
2023/02/09 11:59:40;;;;;;;18.90;11.40;;;;;;;5.35;48.77;101953.01;178614;1276;44155;-90
2023/02/09 12:04:00;;;;;;;15.30;7.90;;;;;;;5.32;48.40;101950.65;178769;1273;44051;-89
2023/02/09 12:08:25;;;;;;;18.30;11.60;;;;;;;5.25;48.84;101947.70;180033;1270;44054;-90
2023/02/09 12:12:44;;;;;;;20.70;13.30;;;;;;;5.33;49.32;101944.27;179994;1270;58347;-90
2023/02/09 12:17:04;;;;;;;21.20;11.20;;;;;;;5.39;49.93;101940.72;180161;1270;44193;-90
2023/02/09 12:21:08;;;;;;;14.90;10.80;;;;;;;5.40;49.32;101933.83;179974;1270;44060;-90
2023/02/09 12:25:11;;;;;;;12.40;9.30;;;;;;;5.43;49.22;101934.97;179842;1270;43973;-90
2023/02/09 12:29:34;;;;;;;16.60;10.50;;;;;;;5.43;48.93;101932.32;180118;1270;44164;-90
2023/02/09 12:33:58;;;;;;;16.90;11.60;;;;;;;5.48;49.48;101926.52;180159;1269;58394;-90
2023/02/09 12:38:13;;;;;;;20.60;15.70;;;;;;;5.54;49.74;101921.73;179983;1270;43983;-90
2023/02/09 12:42:16;;;;;;;23.60;13.40;;;;;;;5.66;50.45;101917.11;179899;1270;44146;-90
2023/02/09 12:46:21;;;;;;;14.70;12.00;;;;;;;5.63;49.31;101909.46;179984;1270;44028;-89
2023/02/09 12:50:33;;;;;;;21.30;12.90;;;;;;;5.57;49.39;101907.22;179944;1269;44272;-90
2023/02/09 12:54:57;;;;;;;22.70;14.30;;;;;;;5.55;50.06;101902.34;179801;1269;59739;-90
2023/02/09 12:59:16;;;;;;;17.70;13.00;;;;;;;5.62;51.02;101903.70;180251;1270;44128;-89
2023/02/09 13:03:22;;;;;;;23.50;12.00;;;;;;;5.66;50.70;101900.74;179978;1270;44390;-90
2023/02/09 13:07:31;;;;;;;15.90;10.80;;;;;;;5.65;50.28;101899.73;179890;1270;43951;-90
2023/02/09 13:11:49;;;;;;;18.40;10.70;;;;;;;5.64;50.94;101901.01;180210;1269;44059;-90
2023/02/09 13:15:52;;;;;;;24.10;12.20;;;;;;;5.67;51.47;101902.98;179897;1270;58674;-90
2023/02/09 13:20:27;;;;;;;14.40;11.00;;;;;;;5.63;51.01;101895.23;180079;1269;44096;-89
2023/02/09 13:24:40;;;;;;;16.10;10.80;;;;;;;5.63;52.35;101892.02;180331;1270;44215;-90
2023/02/09 13:28:43;;;;;;;16.80;10.20;;;;;;;5.65;53.04;101891.97;179733;1270;43800;-90
2023/02/09 13:33:17;;;;;;;22.50;14.90;;;;;;;5.69;52.90;101890.94;179875;1270;43761;-90
2023/02/09 13:37:51;;;;;;;17.50;12.50;;;;;;;5.70;51.84;101888.98;179708;1270;60364;-90
2023/02/09 13:41:54;;;;;;;16.80;11.60;;;;;;;5.70;53.19;101890.23;179996;1269;44153;-89
2023/02/09 13:45:59;;;;;;;16.20;11.30;;;;;;;5.71;53.20;101882.09;179972;1270;43766;-89
2023/02/09 13:50:13;;;;;;;17.50;11.70;;;;;;;5.68;53.43;101874.63;179967;1269;44177;-89
2023/02/09 13:54:19;;;;;;;15.00;10.90;;;;;;;5.68;52.25;101876.36;179981;1270;43918;-89
2023/02/09 13:58:27;;;;;;;16.10;11.10;;;;;;;5.71;53.07;101883.48;179771;1270;58288;-90
2023/02/09 14:02:30;;;;;;;20.30;12.10;;;;;;;5.73;53.07;101878.50;179959;1270;43775;-89
2023/02/09 14:06:38;;;;;;;18.40;11.90;;;;;;;5.73;53.58;101875.86;179904;1270;44101;-89
2023/02/09 14:10:49;;;;;;;19.00;12.50;;;;;;;5.68;52.46;101870.41;179834;1269;44065;-89
2023/02/09 14:19:36;;;;;;;21.40;15.10;;;;;;;5.59;52.44;101863.33;179967;1269;58338;-90
2023/02/09 14:23:42;;;;;;;26.40;17.20;;;;;;;5.55;52.78;101864.50;179906;1270;44072;-89
2023/02/09 14:27:47;;;;;;;19.30;13.90;;;;;;;5.52;52.34;101863.22;179951;1270;44254;-88
2023/02/09 14:31:52;;;;;;;23.40;15.90;;;;;;;5.49;52.14;101860.52;180149;1270;43840;-90
2023/02/09 14:35:58;;;;;;;23.10;14.50;;;;;;;5.43;52.13;101860.00;180072;1270;43752;-89
2023/02/09 14:40:04;;;;;;;25.90;14.20;;;;;;;5.40;52.40;101849.37;179871;1270;60239;-89
2023/02/09 14:44:08;;;;;;;25.00;15.80;;;;;;;5.38;52.70;101849.64;180353;1269;43828;-88
2023/02/09 14:48:23;;;;;;;25.60;16.10;;;;;;;5.27;53.28;101848.06;180170;1270;43804;-90
2023/02/09 14:52:30;;;;;;;20.40;13.90;;;;;;;5.29;53.33;101845.00;179786;1270;43962;-89
2023/02/09 14:56:33;;;;;;;21.30;14.50;;;;;;;5.26;53.65;101842.99;179629;1270;44241;-89
2023/02/09 15:00:36;;;;;;;18.50;13.70;;;;;;;5.17;53.59;101848.94;179666;1270;60813;-89
2023/02/09 15:04:40;;;;;;;21.80;14.10;;;;;;;5.10;53.67;101845.30;179755;1269;43986;-89
2023/02/09 15:08:44;;;;;;;25.20;17.00;;;;;;;5.01;54.19;101845.23;179909;1269;43917;-89
2023/02/09 15:12:47;;;;;;;23.30;16.60;;;;;;;4.86;54.96;101846.98;180073;1269;43917;-89
2023/02/09 15:16:50;;;;;;;29.80;20.50;;;;;;;4.64;55.58;101842.05;179990;1270;44278;-89
2023/02/09 15:20:53;;;;;;;21.80;17.30;;;;;;;4.50;56.10;101850.38;179769;1269;59715;-89
2023/02/09 15:24:57;;;;;;;26.20;15.10;;;;;;;4.41;56.68;101853.64;179644;1270;44043;-88
2023/02/09 15:29:00;;;;;;;26.40;15.50;;;;;;;4.26;57.33;101851.63;179863;1269;43881;-89
2023/02/09 15:33:05;;;;;;;30.80;19.40;;;;;;;3.95;57.72;101839.73;179580;1270;44120;-88
2023/02/09 15:37:34;;;;;;;26.40;15.90;;;;;;;3.84;58.22;101833.37;179590;1270;43896;-89
2023/02/09 15:50:20;;;;;;;67.90;33.00;;;;;;;3.46;59.03;101833.73;179823;1269;43866;-89
2023/02/09 15:54:28;;;;;;;68.10;32.10;;;;;;;3.38;59.14;101838.14;179901;1269;44306;-89
2023/02/09 15:58:34;;;;;;;55.50;34.80;;;;;;;3.25;59.34;101833.58;179651;1270;43762;-89
2023/02/09 16:02:37;;;;;;;28.20;21.40;;;;;;;3.23;59.28;101836.78;180197;1269;59853;-89
2023/02/09 16:06:47;;;;;;;42.40;24.00;;;;;;;3.15;59.28;101834.71;179844;1270;44104;-88
2023/02/09 16:10:51;;;;;;;36.70;24.00;;;;;;;3.07;59.59;101829.64;179876;1269;43926;-89
2023/02/09 16:14:55;;;;;;;42.00;23.30;;;;;;;2.98;59.60;101835.66;180176;1269;43793;-89
2023/02/09 16:18:58;;;;;;;33.70;19.50;;;;;;;2.83;60.08;101838.13;179855;1269;44054;-88
2023/02/09 16:23:04;;;;;;;26.60;18.00;;;;;;;2.75;60.16;101832.20;179751;1270;60840;-89
2023/02/09 16:27:26;;;;;;;44.10;23.30;;;;;;;2.62;60.78;101823.56;179828;1269;44253;-89
2023/02/09 16:31:30;;;;;;;67.50;36.60;;;;;;;2.51;60.98;101811.21;179770;1270;43756;-89
2023/02/09 16:35:34;;;;;;;46.00;25.40;;;;;;;2.53;61.06;101808.88;179796;1269;43859;-88
2023/02/09 16:39:37;;;;;;;32.00;20.10;;;;;;;2.48;61.06;101804.80;179839;1270;44328;-89
2023/02/09 16:43:40;;;;;;;24.40;15.90;;;;;;;2.47;61.43;101812.55;179903;1269;60255;-88
2023/02/09 16:47:49;;;;;;;44.00;22.60;;;;;;;2.44;61.37;101814.01;179717;1270;44106;-89
2023/02/09 16:51:55;;;;;;;40.40;24.70;;;;;;;2.45;61.53;101814.15;179624;1270;43704;-88
2023/02/09 16:55:59;;;;;;;;;;;;;;;2.38;61.84;101810.65;179724;1269;44074;-88
2023/02/09 17:00:03;;;;;;;21.60;15.80;;;;;;;2.38;61.85;101807.48;179823;1269;43561;-89
2023/02/09 17:04:08;;;;;;;17.80;13.10;;;;;;;2.36;61.94;101813.31;179916;1269;58294;-89
2023/02/09 17:08:20;;;;;;;22.20;14.80;;;;;;;2.33;62.08;101829.13;179643;1269;43835;-89
2023/02/09 17:12:23;;;;;;;26.60;15.80;;;;;;;2.33;61.96;101832.29;179805;1270;44085;-88
2023/02/09 17:16:33;;;;;;;22.80;16.70;;;;;;;2.33;61.74;101828.95;179860;1269;43963;-88
2023/02/09 17:20:41;;;;;;;23.80;15.80;;;;;;;2.30;61.76;101827.25;179795;1269;44161;-89
2023/02/09 17:24:46;;;;;;;35.10;22.60;;;;;;;2.30;61.77;101819.05;179742;1269;59693;-88
2023/02/09 17:28:50;;;;;;;38.00;20.80;;;;;;;2.25;62.14;101814.62;179740;1269;44063;-88
2023/02/09 17:32:59;;;;;;;53.40;36.70;;;;;;;2.22;62.01;101813.62;179881;1270;43749;-89
2023/02/09 17:37:02;;;;;;;36.40;22.80;;;;;;;2.18;61.84;101810.89;179947;1270;43813;-88
2023/02/09 17:41:12;;;;;;;36.70;24.00;;;;;;;2.19;61.81;101810.02;179829;1269;43942;-89
2023/02/09 17:45:21;;;;;;;43.90;26.50;;;;;;;2.18;61.51;101802.33;180069;1270;58597;-88
2023/02/09 17:49:25;;;;;;;42.10;23.00;;;;;;;2.17;61.84;101800.76;179808;1269;44073;-89
2023/02/09 17:53:32;;;;;;;37.80;23.50;;;;;;;2.18;61.86;101809.70;179911;1269;43721;-89
2023/02/09 17:57:35;;;;;;;25.70;15.60;;;;;;;2.18;61.92;101811.09;180074;1269;44263;-88
2023/02/09 18:01:45;;;;;;;23.70;15.40;;;;;;;2.19;62.16;101814.73;179680;1269;43841;-88
2023/02/09 18:05:52;;;;;;;24.30;15.10;;;;;;;2.16;62.32;101814.10;179667;1269;58328;-89
2023/02/09 18:09:56;;;;;;;25.50;12.30;;;;;;;2.12;63.22;101798.10;180018;1269;43890;-89
2023/02/09 18:13:59;;;;;;;25.70;17.20;;;;;;;2.07;62.62;101754.25;179623;1269;43753;-89
2023/02/09 19:06:02;;;;;;;19.90;12.00;;;;;;;1.69;67.15;101818.23;180340;1270;44270;-91
2023/02/09 19:39:32;;;;;;;;;;;;;;;;;;;;;
2023/02/09 19:43:45;;;;;;;17.60;12.60;;;;;;;1.62;66.70;101840.92;167449;1267;76277;-75
2023/02/09 19:47:48;;;;;;;29.40;15.50;;;;;;;1.64;66.97;101841.40;180984;1268;43065;-74
2023/02/09 19:52:19;;;;;;;23.20;15.40;;;;;;;1.62;67.27;101838.99;181027;1267;43083;-75
2023/02/09 19:56:22;;;;;;;18.20;13.50;;;;;;;1.68;67.72;101842.02;180923;1267;43361;-75
2023/02/09 20:00:27;;;;;;;23.20;13.80;;;;;;;1.68;68.26;101838.18;181018;1268;58035;-75
2023/02/09 20:04:32;;;;;;;23.30;16.70;;;;;;;1.65;69.00;101844.70;180928;1268;43044;-75
2023/02/09 20:08:36;;;;;;;24.20;15.90;;;;;;;1.48;70.60;101846.60;180947;1267;43003;-75
2023/02/09 20:22:30;;;;;;;29.60;17.00;;;;;;;1.43;70.18;101856.48;180134;1267;75062;-75
2023/02/09 20:27:25;;;;;;;26.40;18.40;;;;;;;1.51;70.54;101860.54;180980;1267;43805;-76
2023/02/09 20:31:33;;;;;;;26.30;18.70;;;;;;;1.57;70.72;101864.98;180904;1269;43668;-76
2023/02/09 20:36:07;;;;;;;24.10;14.90;;;;;;;1.48;71.18;101870.20;180905;1268;43550;-74
2023/02/09 20:40:11;;;;;;;31.00;19.30;;;;;;;1.39;70.79;101864.44;180998;1267;43029;-75
2023/02/09 20:48:37;;;;;;;44.50;24.90;;;;;;;1.34;70.41;101865.21;180992;1268;43045;-75
2023/02/09 20:52:40;;;;;;;35.10;21.60;;;;;;;1.25;70.42;101863.61;180987;1267;43394;-76
2023/02/09 20:56:44;;;;;;;33.60;21.10;;;;;;;1.18;71.16;101857.28;180893;1267;43775;-75
2023/02/09 21:01:22;;;;;;;27.40;17.00;;;;;;;1.14;71.44;101868.52;180921;1269;43084;-74
2023/02/09 21:05:26;;;;;;;22.30;16.40;;;;;;;1.16;71.27;101850.14;180941;1268;58242;-75
2023/02/09 21:09:41;;;;;;;21.20;13.70;;;;;;;1.17;71.57;101849.07;180880;1268;43064;-75
2023/02/09 21:13:44;;;;;;;21.50;13.30;;;;;;;1.13;72.31;101842.16;180951;1270;43024;-74
2023/02/09 21:17:59;;;;;;;29.30;17.10;;;;;;;1.11;71.91;101838.52;180897;1268;43267;-75
2023/02/09 21:22:28;;;;;;;27.80;19.50;;;;;;;1.10;70.03;101838.20;180898;1268;43018;-76
2023/02/09 21:26:54;;;;;;;27.90;19.30;;;;;;;1.16;68.77;101838.44;180998;1268;58273;-75